Time;durP1;ratioP1;P1;durP2;ratioP2;P2;SDS_P1;SDS_P2;PMS_P1;PMS_P2;Temp;Humidity;BMP_temperature;BMP_pressure;BME280_temperature;BME280_humidity;BME280_pressure;Samples;Min_cycle;Max_cycle;Signal;HPM_P1;HPM_P2
2022/06/21 00:02:01;;;;;;;2.58;2.38;;;;;;;;;;12680242;28;20032;-87
2022/06/21 00:08:04;;;;;;;1.92;1.83;;;;;;;;;;12661216;28;20058;-80
2022/06/21 00:14:05;;;;;;;2.30;2.20;;;;;;;;;;12687985;28;20506;-87
2022/06/21 00:20:08;;;;;;;2.58;2.38;;;;;;;;;;12709066;28;20039;-80
2022/06/21 00:26:14;;;;;;;3.45;2.45;;;;;;;;;;12692657;28;20028;-84
2022/06/21 00:32:17;;;;;;;1.98;1.80;;;;;;;;;;12708780;28;20044;-79
2022/06/21 00:38:29;;;;;;;2.70;2.50;;;;;;;;;;12710520;28;20085;-87
2022/06/21 00:44:42;;;;;;;2.05;1.63;;;;;;;;;;12708350;28;20035;-85
2022/06/21 00:50:46;;;;;;;1.88;1.77;;;;;;;;;;12707653;27;20035;-80
2022/06/21 00:57:00;;;;;;;2.72;2.53;;;;;;;;;;12706923;28;20035;-85
2022/06/21 01:03:05;;;;;;;2.22;2.03;;;;;;;;;;12669597;28;20031;-80
2022/06/21 01:09:08;;;;;;;2.60;2.45;;;;;;;;;;12687273;28;20044;-87
2022/06/21 01:15:13;;;;;;;2.08;1.98;;;;;;;;;;12686942;28;20498;-80
2022/06/21 01:21:15;;;;;;;2.42;2.28;;;;;;;;;;12684601;28;20391;-80
2022/06/21 01:27:18;;;;;;;2.67;2.13;;;;;;;;;;12670353;28;20062;-79
2022/06/21 01:33:27;;;;;;;2.92;2.72;;;;;;;;;;12685668;28;20395;-80
2022/06/21 01:39:33;;;;;;;2.38;2.15;;;;;;;;;;12702169;28;20058;-80
2022/06/21 01:45:39;;;;;;;2.88;2.67;;;;;;;;;;12703247;28;20415;-80
2022/06/21 01:51:46;;;;;;;3.00;2.67;;;;;;;;;;12706326;28;20055;-87
2022/06/21 01:57:48;;;;;;;2.83;2.63;;;;;;;;;;12687934;28;20035;-86
2022/06/21 02:03:52;;;;;;;3.22;3.03;;;;;;;;;;12683394;28;20035;-87
2022/06/21 02:10:08;;;;;;;3.33;3.00;;;;;;;;;;12682971;28;20431;-87
2022/06/21 02:16:12;;;;;;;3.40;3.20;;;;;;;;;;12683393;28;20039;-87
2022/06/21 02:22:17;;;;;;;3.65;3.17;;;;;;;;;;12683762;28;20027;-80
2022/06/21 02:28:19;;;;;;;3.40;3.10;;;;;;;;;;12668445;28;20038;-88
2022/06/21 02:34:24;;;;;;;3.80;3.50;;;;;;;;;;12684375;28;20040;-87
2022/06/21 02:40:32;;;;;;;3.47;3.15;;;;;;;;;;12701748;28;20047;-79
2022/06/21 02:46:36;;;;;;;2.40;2.30;;;;;;;;;;12680922;28;20383;-87
2022/06/21 02:52:40;;;;;;;3.83;3.53;;;;;;;;;;12672591;28;20054;-87
2022/06/21 02:58:45;;;;;;;4.78;4.38;;;;;;;;;;12682973;28;20521;-87
2022/06/21 03:04:55;;;;;;;4.82;3.90;;;;;;;;;;12683207;28;20032;-86
2022/06/21 03:10:58;;;;;;;4.32;4.03;;;;;;;;;;12682360;28;20048;-86
2022/06/21 03:17:01;;;;;;;4.47;3.97;;;;;;;;;;12699189;28;20027;-86
2022/06/21 03:23:04;;;;;;;4.28;3.88;;;;;;;;;;12699247;28;20058;-80
2022/06/21 03:29:07;;;;;;;4.75;4.35;;;;;;;;;;12702242;28;20054;-80
2022/06/21 03:35:10;;;;;;;4.45;4.05;;;;;;;;;;12700018;28;20039;-81
2022/06/21 03:48:00;;;;;;;5.13;4.68;;;;;;;;;;12611621;28;20063;-86
2022/06/21 03:54:08;;;;;;;4.82;4.32;;;;;;;;;;12691778;28;20038;-81
2022/06/21 04:00:12;;;;;;;4.65;4.25;;;;;;;;;;12713854;28;20047;-80
2022/06/21 04:06:36;;;;;;;3.95;3.47;;;;;;;;;;12692301;28;20040;-81
2022/06/21 04:12:52;;;;;;;4.38;4.05;;;;;;;;;;12674235;28;20518;-79
2022/06/21 04:18:58;;;;;;;4.63;4.03;;;;;;;;;;12688911;28;20031;-86
2022/06/21 04:25:00;;;;;;;5.20;4.80;;;;;;;;;;12710844;28;20034;-81
2022/06/21 04:31:01;;;;;;;;;;;;;;;;;;12710145;28;20035;-81
2022/06/21 04:37:03;;;;;;;;;;;;;;;;;;12691140;28;19920;-80
2022/06/21 04:43:25;;;;;;;3.38;3.08;;;;;;;;;;12694943;28;19891;-85
2022/06/21 04:49:27;;;;;;;;;;;;;;;;;;12703241;28;20040;-86
2022/06/21 04:55:42;;;;;;;3.83;3.43;;;;;;;;;;12705130;28;19908;-80
2022/06/21 05:01:43;;;;;;;4.32;4.03;;;;;;;;;;12677798;28;20281;-85
2022/06/21 05:07:47;;;;;;;4.63;4.22;;;;;;;;;;12690624;28;20020;-80
2022/06/21 05:13:50;;;;;;;4.65;4.35;;;;;;;;;;12707536;28;20020;-86
2022/06/21 05:19:56;;;;;;;4.82;4.47;;;;;;;;;;12706709;28;20043;-80
2022/06/21 05:26:01;;;;;;;5.20;4.70;;;;;;;;;;12706974;28;20035;-80
2022/06/21 05:32:04;;;;;;;6.22;5.53;;;;;;;;;;12669194;28;20107;-80
2022/06/21 05:38:10;;;;;;;5.57;5.18;;;;;;;;;;12688984;28;20059;-80
2022/06/21 05:44:13;;;;;;;3.20;3.00;;;;;;;;;;12711589;28;20024;-82
2022/06/21 05:50:20;;;;;;;3.85;3.50;;;;;;;;;;12689461;28;20498;-82
2022/06/21 05:56:23;;;;;;;3.30;3.10;;;;;;;;;;12683438;28;20028;-81
2022/06/21 06:02:33;;;;;;;3.22;3.03;;;;;;;;;;12683951;28;20036;-84
2022/06/21 06:08:55;;;;;;;4.57;3.67;;;;;;;;;;12701518;28;20383;-86
2022/06/21 06:14:57;;;;;;;;;;;;;;;;;;12704186;28;20031;-84
2022/06/21 06:21:01;;;;;;;3.90;3.40;;;;;;;;;;12679867;28;19908;-84
2022/06/21 06:27:03;;;;;;;3.38;2.88;;;;;;;;;;12701360;28;20031;-87
2022/06/21 06:33:24;;;;;;;2.40;2.30;;;;;;;;;;12681897;28;20055;-84
2022/06/21 06:39:26;;;;;;;2.72;2.53;;;;;;;;;;12677661;28;20047;-84
2022/06/21 06:45:47;;;;;;;3.50;3.20;;;;;;;;;;12695464;28;20035;-86
2022/06/21 06:51:52;;;;;;;4.30;3.90;;;;;;;;;;12661315;28;20054;-86
2022/06/21 06:57:58;;;;;;;5.65;4.55;;;;;;;;;;12678600;28;20039;-84
2022/06/21 07:04:03;;;;;;;3.92;3.53;;;;;;;;;;12661684;28;20046;-88
2022/06/21 07:10:09;;;;;;;3.38;3.08;;;;;;;;;;12696889;28;20054;-83
2022/06/21 07:16:13;;;;;;;9.07;3.55;;;;;;;;;;12696372;28;20034;-85
2022/06/21 07:22:20;;;;;;;5.30;2.72;;;;;;;;;;12677659;28;20483;-84
2022/06/21 07:28:24;;;;;;;2.75;2.55;;;;;;;;;;12677277;28;20050;-79
2022/06/21 07:34:34;;;;;;;2.72;2.58;;;;;;;;;;12693588;28;20032;-78
2022/06/21 07:40:39;;;;;;;2.30;2.10;;;;;;;;;;12692894;28;20385;-75
2022/06/21 07:46:46;;;;;;;3.22;2.28;;;;;;;;;;12675383;28;20413;-75
2022/06/21 07:52:51;;;;;;;2.15;2.05;;;;;;;;;;12692738;28;20040;-75
2022/06/21 07:59:25;;;;;;;1.83;1.73;;;;;;;;;;12693489;28;20416;-74
2022/06/21 08:11:55;;;;;;;2.90;2.38;;;;;;;;;;12692725;28;20439;-74
2022/06/21 08:18:00;;;;;;;3.20;2.90;;;;;;;;;;12694181;28;20024;-74
2022/06/21 08:24:06;;;;;;;3.83;3.30;;;;;;;;;;12693203;28;20031;-76
2022/06/21 08:30:13;;;;;;;3.47;3.08;;;;;;;;;;12675098;28;20036;-74
2022/06/21 08:36:18;;;;;;;3.75;3.20;;;;;;;;;;12671328;28;20445;-75
2022/06/21 08:42:39;;;;;;;3.33;3.00;;;;;;;;;;12697219;28;20382;-76
2022/06/21 08:48:51;;;;;;;3.72;3.42;;;;;;;;;;12678400;28;20064;-74
2022/06/21 08:54:58;;;;;;;4.75;4.20;;;;;;;;;;12683149;28;20047;-75
2022/06/21 09:01:05;;;;;;;3.08;2.80;;;;;;;;;;12682088;28;20065;-75
2022/06/21 09:07:07;;;;;;;5.78;2.70;;;;;;;;;;12683226;28;20032;-75
2022/06/21 09:13:09;;;;;;;2.70;2.30;;;;;;;;;;12699977;28;20044;-76
2022/06/21 09:19:30;;;;;;;2.45;1.90;;;;;;;;;;12680998;28;20188;-75
2022/06/21 09:25:43;;;;;;;3.20;2.53;;;;;;;;;;12696899;28;20519;-74
2022/06/21 09:31:51;;;;;;;2.67;2.47;;;;;;;;;;12664864;28;20050;-77
2022/06/21 09:38:17;;;;;;;3.78;2.67;;;;;;;;;;12680868;28;20373;-77
2022/06/21 09:44:19;;;;;;;3.30;3.00;;;;;;;;;;12665752;28;20035;-77
2022/06/21 09:50:36;;;;;;;2.60;2.40;;;;;;;;;;12682204;28;20044;-76
2022/06/21 09:56:56;;;;;;;3.90;3.53;;;;;;;;;;12679146;28;20500;-76
2022/06/21 10:03:04;;;;;;;4.53;4.07;;;;;;;;;;12647127;28;20032;-76
2022/06/21 10:09:06;;;;;;;2.72;2.53;;;;;;;;;;12678733;28;20069;-76
2022/06/21 10:15:28;;;;;;;2.63;2.42;;;;;;;;;;12678967;28;20058;-77
2022/06/21 10:21:52;;;;;;;3.30;2.50;;;;;;;;;;12678000;28;20027;-79
2022/06/21 10:28:13;;;;;;;2.30;2.10;;;;;;;;;;12684451;28;20054;-79
2022/06/21 10:34:18;;;;;;;3.00;2.70;;;;;;;;;;12699530;28;20129;-80
2022/06/21 10:40:39;;;;;;;4.20;3.20;;;;;;;;;;12703529;28;20047;-79
2022/06/21 10:46:45;;;;;;;2.58;2.38;;;;;;;;;;12681388;28;20028;-81
2022/06/21 10:52:53;;;;;;;2.85;2.33;;;;;;;;;;12696502;28;20051;-77
2022/06/21 10:59:00;;;;;;;2.90;2.67;;;;;;;;;;12685351;28;20032;-80
2022/06/21 11:05:17;;;;;;;2.90;2.38;;;;;;;;;;12680453;28;20047;-81
2022/06/21 11:11:25;;;;;;;3.22;2.78;;;;;;;;;;12681657;28;20044;-81
2022/06/21 11:17:30;;;;;;;2.65;2.45;;;;;;;;;;12697457;28;20035;-78
2022/06/21 11:23:36;;;;;;;3.47;2.30;;;;;;;;;;12679598;28;20038;-82
2022/06/21 11:29:43;;;;;;;2.30;2.10;;;;;;;;;;12680668;28;20042;-82
2022/06/21 11:35:50;;;;;;;1.88;1.77;;;;;;;;;;12694514;28;20036;-83
2022/06/21 11:42:04;;;;;;;2.20;2.10;;;;;;;;;;12687245;28;20059;-83
2022/06/21 11:48:12;;;;;;;2.00;1.90;;;;;;;;;;12678781;28;20040;-78
2022/06/21 11:54:16;;;;;;;1.90;1.80;;;;;;;;;;12690128;28;20046;-78
2022/06/21 12:00:26;;;;;;;2.72;2.13;;;;;;;;;;12681961;28;20039;-78
2022/06/21 12:06:47;;;;;;;1.92;1.83;;;;;;;;;;12674418;28;20028;-83
2022/06/21 12:13:01;;;;;;;4.03;3.05;;;;;;;;;;12633458;28;20037;-78
2022/06/21 12:19:13;;;;;;;3.58;3.00;;;;;;;;;;12654519;28;20450;-83
2022/06/21 12:25:17;;;;;;;4.50;3.55;;;;;;;;;;12668385;28;20032;-78
2022/06/21 12:31:24;;;;;;;3.22;2.92;;;;;;;;;;12667536;28;20117;-77
2022/06/21 12:37:31;;;;;;;5.38;3.35;;;;;;;;;;12683758;28;20056;-78
2022/06/21 12:43:51;;;;;;;3.33;3.10;;;;;;;;;;12669833;28;20487;-82
2022/06/21 12:50:12;;;;;;;4.43;4.03;;;;;;;;;;12682806;28;20035;-77
2022/06/21 12:56:13;;;;;;;2.88;2.60;;;;;;;;;;12692847;28;20031;-77
2022/06/21 13:02:34;;;;;;;3.40;2.30;;;;;;;;;;12707153;28;20062;-78
2022/06/21 13:08:54;;;;;;;3.20;2.03;;;;;;;;;;12704367;28;20038;-78
2022/06/21 13:15:08;;;;;;;3.30;2.63;;;;;;;;;;12701498;28;20389;-77
2022/06/21 13:21:16;;;;;;;2.00;1.67;;;;;;;;;;12699731;28;20395;-79
2022/06/21 13:27:30;;;;;;;4.03;2.47;;;;;;;;;;12700413;28;20028;-80
2022/06/21 13:33:35;;;;;;;2.47;2.28;;;;;;;;;;12665161;28;20039;-80
2022/06/21 13:39:44;;;;;;;2.35;2.15;;;;;;;;;;12683103;28;20491;-82
2022/06/21 13:45:49;;;;;;;2.03;1.93;;;;;;;;;;12665572;28;20480;-81
2022/06/21 13:51:54;;;;;;;2.05;1.90;;;;;;;;;;12700228;28;20039;-80
2022/06/21 13:58:06;;;;;;;4.75;3.20;;;;;;;;;;12682060;28;20375;-79
2022/06/21 14:04:13;;;;;;;2.75;2.55;;;;;;;;;;12699353;28;20054;-79
2022/06/21 14:10:24;;;;;;;2.13;2.03;;;;;;;;;;12680852;28;20054;-80
2022/06/21 14:16:35;;;;;;;2.22;2.03;;;;;;;;;;12699718;28;20494;-82
2022/06/21 14:22:37;;;;;;;3.25;2.53;;;;;;;;;;12700221;28;20027;-84
2022/06/21 14:28:58;;;;;;;3.80;2.78;;;;;;;;;;12679719;28;20475;-83
2022/06/21 14:35:07;;;;;;;3.35;2.70;;;;;;;;;;12680952;28;20027;-81
2022/06/21 14:41:14;;;;;;;2.00;1.90;;;;;;;;;;12679778;28;20052;-79
2022/06/21 14:47:16;;;;;;;2.53;2.30;;;;;;;;;;12660624;28;20376;-79
2022/06/21 14:53:41;;;;;;;2.75;2.55;;;;;;;;;;12679003;28;20044;-79
2022/06/21 14:59:56;;;;;;;6.78;2.90;;;;;;;;;;12679058;28;20406;-78
2022/06/21 15:06:17;;;;;;;5.38;2.67;;;;;;;;;;12653816;28;20043;-79
2022/06/21 15:12:21;;;;;;;3.50;2.45;;;;;;;;;;12673088;28;20391;-78
2022/06/21 15:18:36;;;;;;;2.92;2.50;;;;;;;;;;12662232;28;20379;-79
2022/06/21 15:24:38;;;;;;;2.58;2.10;;;;;;;;;;12677631;28;20487;-79
2022/06/21 15:30:42;;;;;;;3.10;2.50;;;;;;;;;;12697465;28;20039;-82
2022/06/21 15:36:44;;;;;;;3.42;2.60;;;;;;;;;;12695837;28;20044;-79
2022/06/21 15:42:56;;;;;;;3.45;2.30;;;;;;;;;;12681397;28;20062;-78
2022/06/21 15:55:39;;;;;;;2.63;2.40;;;;;;;;;;12708485;28;20048;-78
2022/06/21 16:02:02;;;;;;;2.58;2.25;;;;;;;;;;12676321;28;20032;-82
2022/06/21 16:08:24;;;;;;;2.33;2.13;;;;;;;;;;12713892;28;20036;-82
2022/06/21 16:14:36;;;;;;;5.15;2.40;;;;;;;;;;12708528;28;20052;-83
2022/06/21 16:20:40;;;;;;;2.40;1.90;;;;;;;;;;12697837;28;20031;-78
2022/06/21 16:27:01;;;;;;;2.55;2.00;;;;;;;;;;12697300;28;20027;-82
2022/06/21 16:33:15;;;;;;;3.25;2.10;;;;;;;;;;12679191;28;20044;-83
2022/06/21 16:39:20;;;;;;;3.25;2.00;;;;;;;;;;12705972;28;20059;-76
2022/06/21 16:45:29;;;;;;;3.50;2.28;;;;;;;;;;12678512;28;20035;-76
2022/06/21 16:51:38;;;;;;;2.73;2.20;;;;;;;;;;12680635;28;20035;-77
2022/06/21 16:57:41;;;;;;;2.73;2.10;;;;;;;;;;12689351;28;20065;-77
2022/06/21 17:03:48;;;;;;;2.10;1.88;;;;;;;;;;12685712;28;20478;-80
2022/06/21 17:09:55;;;;;;;4.13;2.30;;;;;;;;;;12704258;28;20064;-82
2022/06/21 17:16:17;;;;;;;2.10;2.00;;;;;;;;;;12685199;28;20036;-76
2022/06/21 17:22:29;;;;;;;3.10;2.25;;;;;;;;;;12658745;28;20048;-80
2022/06/21 17:28:37;;;;;;;2.05;1.73;;;;;;;;;;12677539;28;20032;-82
2022/06/21 17:34:43;;;;;;;3.58;1.80;;;;;;;;;;12713026;28;20032;-82
2022/06/21 17:41:06;;;;;;;1.80;1.70;;;;;;;;;;12711974;28;20070;-76
2022/06/21 17:47:15;;;;;;;1.95;1.75;;;;;;;;;;12705791;28;20394;-76
2022/06/21 17:53:29;;;;;;;2.35;2.15;;;;;;;;;;12681876;28;20039;-77
2022/06/21 17:59:32;;;;;;;2.95;1.70;;;;;;;;;;12700444;28;20039;-75
2022/06/21 18:05:37;;;;;;;1.73;1.63;;;;;;;;;;12699625;28;20038;-81
2022/06/21 18:11:47;;;;;;;1.92;1.77;;;;;;;;;;12647569;28;20044;-81
2022/06/21 18:18:10;;;;;;;1.83;1.63;;;;;;;;;;12682568;28;20395;-81
2022/06/21 18:24:47;;;;;;;3.60;2.17;;;;;;;;;;12682256;28;20031;-76
2022/06/21 18:30:49;;;;;;;2.58;1.80;;;;;;;;;;12582320;28;20044;-81
2022/06/21 18:36:54;;;;;;;2.70;1.95;;;;;;;;;;12679863;28;20066;-76
2022/06/21 18:42:59;;;;;;;2.53;2.30;;;;;;;;;;12679922;28;20031;-76
2022/06/21 18:49:16;;;;;;;2.17;1.92;;;;;;;;;;12661775;28;20335;-80
2022/06/21 18:55:38;;;;;;;3.15;2.50;;;;;;;;;;12699606;28;20031;-81
2022/06/21 19:01:51;;;;;;;2.45;1.95;;;;;;;;;;12674638;28;20050;-81
2022/06/21 19:08:31;;;;;;;2.70;1.90;;;;;;;;;;12714363;28;20031;-81
2022/06/21 19:14:52;;;;;;;2.40;1.95;;;;;;;;;;12669513;28;20491;-81
2022/06/21 19:21:04;;;;;;;2.95;2.42;;;;;;;;;;12701221;28;20036;-82
2022/06/21 19:27:24;;;;;;;2.33;2.05;;;;;;;;;;12666652;28;20047;-81
2022/06/21 19:33:26;;;;;;;1.73;1.63;;;;;;;;;;12702335;28;20043;-81
2022/06/21 19:39:40;;;;;;;2.33;1.75;;;;;;;;;;12682332;28;20063;-82
2022/06/21 19:45:51;;;;;;;2.42;1.63;;;;;;;;;;12704612;28;20024;-81
2022/06/21 19:51:52;;;;;;;1.80;1.70;;;;;;;;;;12684000;28;20039;-80
2022/06/21 19:58:11;;;;;;;2.15;1.90;;;;;;;;;;12683420;28;20038;-81
2022/06/21 20:04:51;;;;;;;2.00;1.80;;;;;;;;;;12667975;28;20032;-83
2022/06/21 20:11:03;;;;;;;1.80;1.70;;;;;;;;;;12478964;28;20045;-82
2022/06/21 20:17:17;;;;;;;1.67;1.58;;;;;;;;;;12681791;28;20036;-81
2022/06/21 20:23:18;;;;;;;3.15;1.42;;;;;;;;;;12679264;28;20034;-81
2022/06/21 20:29:24;;;;;;;1.60;1.50;;;;;;;;;;12689882;28;20032;-81
2022/06/21 20:35:33;;;;;;;1.48;1.27;;;;;;;;;;12688015;28;20031;-80
2022/06/21 20:41:38;;;;;;;2.13;1.80;;;;;;;;;;12685804;28;20071;-81
2022/06/21 20:47:58;;;;;;;1.73;1.63;;;;;;;;;;12703873;28;20027;-81
2022/06/21 20:54:02;;;;;;;2.92;2.60;;;;;;;;;;12706122;28;20051;-81
2022/06/21 21:00:06;;;;;;;2.53;2.30;;;;;;;;;;12686734;28;20038;-80
2022/06/21 21:06:10;;;;;;;3.08;2.20;;;;;;;;;;12693250;28;20484;-81
2022/06/21 21:12:14;;;;;;;4.35;2.85;;;;;;;;;;12631985;28;20496;-82
2022/06/21 21:18:22;;;;;;;3.60;2.40;;;;;;;;;;12651880;28;20043;-81
2022/06/21 21:24:28;;;;;;;2.25;2.08;;;;;;;;;;12651677;28;20032;-81
2022/06/21 21:30:36;;;;;;;1.98;1.80;;;;;;;;;;12633131;28;20040;-81
2022/06/21 21:36:53;;;;;;;2.95;1.95;;;;;;;;;;12653527;28;20040;-81
2022/06/21 21:43:01;;;;;;;2.22;2.03;;;;;;;;;;12652476;28;20047;-81
2022/06/21 21:49:05;;;;;;;2.65;1.85;;;;;;;;;;12637664;28;20039;-80
2022/06/21 21:55:13;;;;;;;2.00;1.90;;;;;;;;;;12637006;28;20077;-81
2022/06/21 22:01:16;;;;;;;2.50;1.60;;;;;;;;;;12617194;28;20043;-76
2022/06/21 22:07:33;;;;;;;2.83;2.05;;;;;;;;;;12648974;28;20035;-76
2022/06/21 22:13:43;;;;;;;2.03;1.67;;;;;;;;;;12631989;28;20047;-77
2022/06/21 22:19:45;;;;;;;2.30;2.07;;;;;;;;;;12631633;28;20028;-78
2022/06/21 22:25:57;;;;;;;2.10;2.00;;;;;;;;;;12649327;28;20050;-75
2022/06/21 22:32:06;;;;;;;3.20;2.90;;;;;;;;;;12614969;28;20044;-75
2022/06/21 22:38:08;;;;;;;3.17;2.75;;;;;;;;;;12653859;28;20052;-76
2022/06/21 22:44:14;;;;;;;3.58;2.63;;;;;;;;;;12631949;28;20036;-82
2022/06/21 22:50:19;;;;;;;2.85;2.65;;;;;;;;;;12613208;28;20055;-76
2022/06/21 22:56:23;;;;;;;2.08;1.98;;;;;;;;;;12631693;28;20028;-77
2022/06/21 23:02:30;;;;;;;2.53;2.33;;;;;;;;;;12648287;28;20146;-81
2022/06/21 23:08:41;;;;;;;2.58;2.38;;;;;;;;;;12632351;28;20024;-77
2022/06/21 23:14:43;;;;;;;2.88;2.67;;;;;;;;;;12648881;28;20377;-82
2022/06/21 23:21:17;;;;;;;4.85;3.17;;;;;;;;;;12628805;28;20040;-77
2022/06/21 23:27:21;;;;;;;6.18;4.93;;;;;;;;;;12587758;28;20044;-76
2022/06/21 23:33:23;;;;;;;8.00;7.25;;;;;;;;;;12645916;28;20036;-81
2022/06/21 23:39:27;;;;;;;11.85;10.60;;;;;;;;;;12629043;28;20055;-82
2022/06/21 23:45:32;;;;;;;9.30;8.45;;;;;;;;;;12628284;28;20047;-81
2022/06/21 23:51:35;;;;;;;9.55;8.65;;;;;;;;;;12647837;28;20040;-77
2022/06/21 23:57:37;;;;;;;9.93;8.85;;;;;;;;;;12645510;28;20055;-77
